Time;durP1;ratioP1;P1;durP2;ratioP2;P2;SDS_P1;SDS_P2;PMS_P1;PMS_P2;Temp;Humidity;BMP_temperature;BMP_pressure;BME280_temperature;BME280_humidity;BME280_pressure;Samples;Min_cycle;Max_cycle;Signal;HPM_P1;HPM_P2
2021/09/11 00:01:34;;;;;;;13.20;12.00;;;;;;;19.30;71.04;100588.09;4901885;28;122588;-59
2021/09/11 00:04:00;;;;;;;13.93;12.32;;;;;;;19.26;70.88;100587.16;4903577;28;98002;-60
2021/09/11 00:06:26;;;;;;;13.32;12.02;;;;;;;19.25;71.07;100587.44;4902447;28;98027;-59
2021/09/11 00:08:52;;;;;;;12.77;11.50;;;;;;;19.22;71.17;100583.44;4902296;28;115617;-60
2021/09/11 00:11:18;;;;;;;13.45;12.05;;;;;;;19.21;71.08;100590.00;4901710;28;127098;-59
2021/09/11 00:13:45;;;;;;;13.15;11.85;;;;;;;19.17;71.07;100588.25;4901671;28;118571;-59
2021/09/11 00:16:11;;;;;;;14.35;13.05;;;;;;;19.11;71.23;100587.63;4899700;28;113392;-60
2021/09/11 00:18:37;;;;;;;15.13;13.48;;;;;;;19.07;71.25;100587.47;4902379;28;108197;-60
2021/09/11 00:21:03;;;;;;;16.33;14.13;;;;;;;19.01;71.37;100591.47;4898930;28;126707;-60
2021/09/11 00:23:29;;;;;;;15.75;14.20;;;;;;;18.94;71.25;100577.47;4902504;28;98004;-60
2021/09/11 00:25:59;;;;;;;14.85;13.38;;;;;;;18.92;71.54;100576.22;4901995;28;112613;-59
2021/09/11 00:28:25;;;;;;;14.88;13.27;;;;;;;18.92;71.75;100570.75;4901852;28;98964;-59
2021/09/11 00:30:52;;;;;;;15.07;13.55;;;;;;;18.95;71.65;100564.66;4902335;28;99553;-59
2021/09/11 00:33:18;;;;;;;15.15;13.50;;;;;;;18.96;71.54;100571.72;4901911;28;111091;-59
2021/09/11 00:35:44;;;;;;;15.55;13.93;;;;;;;18.94;71.50;100568.50;4901261;28;112692;-60
2021/09/11 00:38:10;;;;;;;15.30;12.52;;;;;;;18.93;71.23;100569.63;4901531;28;98151;-61
2021/09/11 00:40:36;;;;;;;13.90;12.50;;;;;;;18.92;71.48;100570.75;4901353;28;126908;-59
2021/09/11 00:43:02;;;;;;;15.05;13.45;;;;;;;18.90;71.40;100579.25;4900797;28;127260;-60
2021/09/11 00:45:28;;;;;;;14.65;13.25;;;;;;;18.87;71.33;100577.97;4903375;28;112418;-61
2021/09/11 00:47:54;;;;;;;14.77;13.35;;;;;;;18.87;71.42;100571.72;4904243;28;127169;-60
2021/09/11 00:50:20;;;;;;;14.93;13.43;;;;;;;18.89;71.41;100574.91;4905285;28;122012;-59
2021/09/11 00:52:47;;;;;;;13.77;12.48;;;;;;;18.89;71.39;100572.97;4905106;28;114057;-60
2021/09/11 00:55:14;;;;;;;14.35;13.00;;;;;;;18.91;71.45;100577.34;4871322;28;101809;-60
2021/09/11 00:57:45;;;;;;;14.65;13.18;;;;;;;18.89;71.39;100570.25;4886412;28;98900;-60
2021/09/11 01:00:12;;;;;;;13.73;12.45;;;;;;;18.88;71.50;100567.84;4905000;28;98828;-60
2021/09/11 01:02:39;;;;;;;14.02;12.38;;;;;;;18.87;71.18;100569.78;4904541;28;98461;-60
2021/09/11 01:05:07;;;;;;;13.93;12.73;;;;;;;18.85;71.42;100571.22;4905438;28;97909;-60
2021/09/11 01:07:34;;;;;;;14.50;13.10;;;;;;;18.84;71.22;100573.16;4905045;28;99259;-59
2021/09/11 01:10:01;;;;;;;14.10;12.70;;;;;;;18.84;71.10;100578.59;4887815;28;98922;-60
2021/09/11 01:12:27;;;;;;;13.70;12.40;;;;;;;18.81;71.22;100568.31;4903942;28;115812;-59
2021/09/11 01:14:53;;;;;;;13.05;11.80;;;;;;;18.79;71.12;100572.50;4887515;28;114102;-61
2021/09/11 01:17:20;;;;;;;14.63;13.23;;;;;;;18.78;71.06;100571.69;4903172;28;127883;-59
2021/09/11 01:19:46;;;;;;;15.70;14.10;;;;;;;18.75;70.87;100572.34;4904637;28;127979;-60
2021/09/11 01:22:16;;;;;;;15.18;12.85;;;;;;;18.70;70.82;100575.22;4903580;28;126060;-59
2021/09/11 01:25:09;;;;;;;14.35;12.85;;;;;;;18.64;70.80;100574.53;4888157;28;100214;-59
2021/09/11 01:27:35;;;;;;;13.48;12.07;;;;;;;18.63;71.44;100578.41;4905296;28;99022;-59
2021/09/11 01:30:08;;;;;;;13.98;12.57;;;;;;;18.63;71.19;100578.41;4904784;28;118139;-59
2021/09/11 01:32:34;;;;;;;14.35;12.93;;;;;;;18.63;71.32;100585.78;4901128;28;114821;-60
2021/09/11 01:35:00;;;;;;;14.40;12.90;;;;;;;18.60;70.90;100581.75;4905091;28;102973;-59
2021/09/11 01:37:26;;;;;;;14.20;12.80;;;;;;;18.57;70.87;100582.38;4903205;28;115462;-60
2021/09/11 01:39:52;;;;;;;13.63;12.20;;;;;;;18.54;71.03;100588.47;4903686;28;125011;-60
2021/09/11 01:42:20;;;;;;;15.25;12.90;;;;;;;18.52;71.13;100574.38;4903984;28;97770;-60
2021/09/11 01:44:53;;;;;;;14.40;12.60;;;;;;;18.52;71.09;100579.81;4904907;28;97976;-60
2021/09/11 01:47:19;;;;;;;13.88;12.68;;;;;;;18.50;71.08;100584.78;4903776;28;98567;-60
2021/09/11 01:49:45;;;;;;;14.13;12.43;;;;;;;18.50;70.86;100595.69;4904073;28;127958;-60
2021/09/11 01:52:12;;;;;;;14.80;13.10;;;;;;;18.49;70.83;100585.91;4903778;28;127178;-60
2021/09/11 01:54:38;;;;;;;14.30;12.77;;;;;;;18.50;70.90;100589.44;4903634;28;98025;-58
2021/09/11 01:57:11;;;;;;;13.85;12.55;;;;;;;18.49;70.93;100588.63;4885023;28;111618;-60
2021/09/11 01:59:37;;;;;;;13.60;12.32;;;;;;;18.49;71.02;100585.91;4903991;28;106310;-59
2021/09/11 02:02:04;;;;;;;13.63;11.85;;;;;;;18.49;70.85;100596.81;4902966;28;114303;-60
2021/09/11 02:04:31;;;;;;;13.20;12.00;;;;;;;18.48;71.15;100594.41;4903053;28;97933;-60
2021/09/11 02:06:57;;;;;;;13.95;11.93;;;;;;;18.47;70.86;100596.34;4902197;28;98398;-60
2021/09/11 02:09:23;;;;;;;13.65;12.35;;;;;;;18.46;70.98;100593.91;4904733;28;98421;-59
2021/09/11 02:11:50;;;;;;;13.05;11.85;;;;;;;18.43;71.08;100598.09;4903423;28;118695;-60
2021/09/11 02:14:16;;;;;;;12.75;11.55;;;;;;;18.42;71.10;100598.41;4904202;28;104466;-59
2021/09/11 02:16:42;;;;;;;13.52;12.13;;;;;;;18.40;71.04;100593.28;4903776;28;127944;-59
2021/09/11 02:19:08;;;;;;;14.13;12.80;;;;;;;18.38;71.17;100593.56;4904520;28;98030;-59
2021/09/11 02:21:34;;;;;;;13.80;12.60;;;;;;;18.35;71.16;100599.69;4903169;28;127533;-58
2021/09/11 02:24:00;;;;;;;14.20;12.80;;;;;;;18.31;70.84;100601.44;4904271;28;113142;-60
2021/09/11 02:26:26;;;;;;;13.13;11.82;;;;;;;18.28;71.06;100606.72;4903202;28;128742;-59
2021/09/11 02:28:52;;;;;;;13.25;11.98;;;;;;;18.26;71.16;100598.03;4903159;28;127353;-60
2021/09/11 02:31:19;;;;;;;12.80;11.55;;;;;;;18.25;71.16;100601.88;4917798;28;114581;-59
2021/09/11 02:33:47;;;;;;;13.27;11.93;;;;;;;18.22;71.05;100597.06;4902414;28;98029;-59
2021/09/11 02:36:13;;;;;;;13.73;12.32;;;;;;;18.19;71.08;100601.22;4903349;28;98897;-60
2021/09/11 02:38:39;;;;;;;12.80;11.60;;;;;;;18.20;71.21;100602.84;4901356;28;99111;-61
2021/09/11 02:41:05;;;;;;;13.25;11.95;;;;;;;18.20;71.67;100607.50;4903633;28;98370;-60
2021/09/11 02:43:31;;;;;;;12.55;11.27;;;;;;;18.17;70.97;100616.28;4903154;28;112821;-60
2021/09/11 02:45:57;;;;;;;11.77;10.60;;;;;;;18.11;70.74;100605.50;4902866;28;128441;-60
2021/09/11 02:48:23;;;;;;;12.52;11.35;;;;;;;18.07;70.90;100618.16;4902915;28;128984;-60
2021/09/11 02:50:50;;;;;;;13.32;11.65;;;;;;;18.03;70.98;100611.72;4902808;28;127248;-59
2021/09/11 02:53:16;;;;;;;12.48;10.43;;;;;;;18.03;71.48;100611.72;4903709;28;102269;-60
2021/09/11 02:55:42;;;;;;;11.10;10.10;;;;;;;18.01;71.22;100621.34;4902890;28;127723;-60
2021/09/11 02:58:08;;;;;;;11.35;10.30;;;;;;;18.00;71.28;100620.56;4902281;28;128377;-60
2021/09/11 03:00:34;;;;;;;10.85;9.75;;;;;;;17.99;71.16;100621.66;4901901;28;126742;-59
2021/09/11 03:03:00;;;;;;;11.27;10.18;;;;;;;17.96;70.90;100621.47;4903842;28;97979;-60
2021/09/11 03:05:26;;;;;;;11.60;10.40;;;;;;;17.89;71.09;100614.56;4902835;28;127740;-60
2021/09/11 03:07:52;;;;;;;11.48;10.45;;;;;;;17.86;71.00;100617.09;4901356;28;126980;-59
2021/09/11 03:10:18;;;;;;;11.52;10.43;;;;;;;17.83;71.13;100620.44;4902108;28;98152;-60
2021/09/11 03:12:44;;;;;;;11.30;10.30;;;;;;;17.79;71.27;100625.72;4902733;28;113434;-60
2021/09/11 03:15:12;;;;;;;14.05;12.70;;;;;;;17.77;71.29;100621.72;4885287;28;100257;-60
2021/09/11 03:17:38;;;;;;;12.15;11.05;;;;;;;17.74;71.49;100625.81;4903203;28;97916;-60
2021/09/11 03:20:05;;;;;;;12.65;11.45;;;;;;;17.72;71.40;100630.75;4902274;28;116933;-60
2021/09/11 03:22:31;;;;;;;11.98;10.93;;;;;;;17.71;71.68;100631.88;4902400;28;97821;-60
2021/09/11 03:24:57;;;;;;;13.40;11.73;;;;;;;17.69;71.58;100638.78;4902660;28;99433;-59
2021/09/11 03:27:23;;;;;;;12.38;11.20;;;;;;;17.70;71.58;100637.66;4902770;28;98873;-60
2021/09/11 03:29:49;;;;;;;12.98;11.68;;;;;;;17.67;71.85;100641.81;4902556;28;112974;-60
2021/09/11 03:32:15;;;;;;;12.95;11.57;;;;;;;17.65;71.56;100633.94;4902425;28;112567;-60
2021/09/11 03:34:41;;;;;;;12.50;11.27;;;;;;;17.64;71.49;100631.50;4916265;28;125808;-60
2021/09/11 03:37:08;;;;;;;14.27;11.90;;;;;;;17.64;71.49;100624.16;4902946;28;98919;-59
2021/09/11 03:39:34;;;;;;;12.40;11.30;;;;;;;17.62;71.76;100626.38;4903248;28;97941;-59
2021/09/11 03:42:00;;;;;;;11.95;10.70;;;;;;;17.59;71.68;100629.72;4902245;28;114475;-59
2021/09/11 03:44:26;;;;;;;12.88;11.57;;;;;;;17.60;71.72;100625.88;4902698;28;126895;-60
2021/09/11 03:46:52;;;;;;;13.70;12.30;;;;;;;17.58;71.40;100633.56;4902058;28;128410;-60
2021/09/11 03:49:18;;;;;;;14.63;11.98;;;;;;;17.56;71.72;100637.72;4902301;28;127649;-59
2021/09/11 03:51:44;;;;;;;13.90;12.48;;;;;;;17.52;71.57;100634.00;4902273;28;113356;-60
2021/09/11 03:54:10;;;;;;;14.38;13.07;;;;;;;17.51;71.88;100638.66;4902233;28;127634;-60
2021/09/11 03:56:36;;;;;;;14.20;12.73;;;;;;;17.48;71.90;100643.91;4902776;28;98379;-59
2021/09/11 03:59:02;;;;;;;13.32;12.13;;;;;;;17.47;72.19;100639.56;4901108;28;128135;-59
2021/09/11 04:01:28;;;;;;;14.00;12.68;;;;;;;17.47;72.31;100643.09;4901986;28;113917;-60
2021/09/11 04:03:54;;;;;;;13.55;12.25;;;;;;;17.49;72.28;100645.50;4899524;28;127480;-59
2021/09/11 04:06:20;;;;;;;14.50;13.02;;;;;;;17.49;72.34;100651.78;4901720;28;128233;-60
2021/09/11 04:08:46;;;;;;;14.85;13.27;;;;;;;17.51;72.46;100648.75;4901912;28;125951;-59
2021/09/11 04:11:12;;;;;;;14.35;12.50;;;;;;;17.53;72.60;100652.78;4902486;28;113980;-60
2021/09/11 04:13:38;;;;;;;15.25;13.68;;;;;;;17.54;72.64;100648.94;4868007;28;99938;-59
2021/09/11 04:16:05;;;;;;;14.40;12.88;;;;;;;17.55;72.63;100653.25;4902884;28;98370;-59
2021/09/11 04:18:31;;;;;;;14.07;11.75;;;;;;;17.56;72.92;100652.13;4901850;28;126690;-60
2021/09/11 04:20:57;;;;;;;15.40;12.95;;;;;;;17.57;72.69;100647.53;4905982;28;98135;-59
2021/09/11 04:23:23;;;;;;;14.02;12.75;;;;;;;17.57;72.53;100645.59;4903088;28;127340;-60
2021/09/11 04:25:49;;;;;;;14.63;13.23;;;;;;;17.60;72.51;100644.16;4904921;28;127111;-60
2021/09/11 04:28:15;;;;;;;14.40;12.90;;;;;;;17.60;72.79;100653.13;4905894;28;97978;-60
2021/09/11 04:30:41;;;;;;;14.57;12.98;;;;;;;17.60;72.47;100652.34;4905393;28;114344;-60
2021/09/11 04:33:07;;;;;;;14.30;12.80;;;;;;;17.59;72.62;100648.81;4903365;28;128277;-59
2021/09/11 04:35:33;;;;;;;13.70;12.38;;;;;;;17.61;72.59;100657.50;4904508;28;128516;-59
2021/09/11 04:38:00;;;;;;;14.40;13.00;;;;;;;17.60;72.58;100657.78;4906033;28;98008;-60
2021/09/11 04:40:27;;;;;;;13.82;12.38;;;;;;;17.60;72.59;100674.94;4905956;28;98051;-60
2021/09/11 04:42:55;;;;;;;13.85;12.50;;;;;;;17.59;72.36;100669.81;4904924;28;99062;-60
2021/09/11 04:45:21;;;;;;;14.10;12.70;;;;;;;17.62;72.59;100669.19;4903499;28;98662;-60
2021/09/11 04:47:47;;;;;;;14.25;12.75;;;;;;;17.65;72.49;100665.84;4904955;28;97891;-60
2021/09/11 04:50:13;;;;;;;13.52;12.13;;;;;;;17.67;72.65;100660.88;4903447;28;113868;-59
2021/09/11 04:52:39;;;;;;;14.27;12.88;;;;;;;17.69;72.38;100666.84;4903101;28;127463;-59
2021/09/11 04:55:07;;;;;;;14.07;12.68;;;;;;;17.71;72.43;100669.25;4905657;28;99283;-60
2021/09/11 04:57:34;;;;;;;14.90;13.10;;;;;;;17.72;72.35;100668.13;4905380;28;98109;-60
2021/09/11 05:00:01;;;;;;;14.70;13.20;;;;;;;17.72;72.25;100670.84;4887485;28;97866;-59
2021/09/11 05:02:27;;;;;;;14.18;12.77;;;;;;;17.74;72.43;100672.16;4905091;28;97924;-59
2021/09/11 05:04:54;;;;;;;14.38;12.98;;;;;;;17.76;72.22;100669.16;4904130;28;126014;-59
2021/09/11 05:07:20;;;;;;;15.35;13.75;;;;;;;17.78;72.25;100665.00;4904541;28;98078;-59
2021/09/11 05:09:46;;;;;;;14.63;13.23;;;;;;;17.80;72.14;100662.78;4905746;28;97829;-60
2021/09/11 05:12:13;;;;;;;14.48;12.98;;;;;;;17.85;72.11;100672.75;4903303;28;128867;-60
2021/09/11 05:14:39;;;;;;;14.82;13.48;;;;;;;17.90;71.84;100684.31;4903849;28;126093;-59
2021/09/11 05:17:05;;;;;;;15.07;13.52;;;;;;;17.95;71.46;100680.66;4899863;28;122062;-62
2021/09/11 05:19:31;;;;;;;14.32;12.93;;;;;;;18.02;71.93;100678.31;4902625;28;98294;-60
2021/09/11 05:21:57;;;;;;;14.30;13.00;;;;;;;18.09;71.65;100673.22;4901484;28;128479;-61
2021/09/11 05:24:23;;;;;;;16.02;13.27;;;;;;;18.17;71.58;100677.09;4899673;28;128233;-60
2021/09/11 05:26:49;;;;;;;16.63;14.20;;;;;;;18.23;71.35;100675.84;4898948;28;126813;-59
2021/09/11 05:29:15;;;;;;;15.45;13.95;;;;;;;18.31;71.25;100679.72;4899791;28;113466;-60
2021/09/11 05:31:41;;;;;;;14.65;13.20;;;;;;;18.39;70.98;100676.22;4898308;28;129152;-61
2021/09/11 05:34:07;;;;;;;15.25;13.85;;;;;;;18.45;71.00;100685.91;4901200;28;127864;-60
2021/09/11 05:36:33;;;;;;;15.90;14.32;;;;;;;18.51;70.91;100678.38;4898598;28;127012;-59
2021/09/11 05:38:59;;;;;;;14.52;13.05;;;;;;;18.59;70.85;100685.81;4902280;28;97837;-59
2021/09/11 05:41:25;;;;;;;14.13;12.82;;;;;;;18.67;70.58;100682.31;4881949;28;128006;-59
2021/09/11 05:43:51;;;;;;;14.23;12.85;;;;;;;18.77;70.58;100684.75;4899947;28;129079;-59
2021/09/11 05:46:18;;;;;;;14.68;13.15;;;;;;;18.90;70.36;100685.75;4901294;28;98167;-59
2021/09/11 05:48:44;;;;;;;14.20;12.73;;;;;;;19.00;70.27;100685.47;4901028;28;112691;-60
2021/09/11 05:51:10;;;;;;;14.85;13.35;;;;;;;19.11;69.94;100686.78;4902111;28;127816;-60
2021/09/11 05:53:36;;;;;;;13.75;12.48;;;;;;;19.25;69.96;100688.53;4884276;28;98081;-59
2021/09/11 05:56:02;;;;;;;14.13;12.65;;;;;;;19.37;69.72;100688.72;4901522;28;112723;-60
2021/09/11 05:58:29;;;;;;;14.38;12.48;;;;;;;19.49;69.43;100688.91;4901139;28;102185;-60
2021/09/11 06:00:56;;;;;;;14.25;12.75;;;;;;;19.63;69.27;100699.69;4900945;28;98240;-60
2021/09/11 06:03:22;;;;;;;13.93;12.32;;;;;;;19.80;68.89;100698.88;4900947;28;115457;-61
2021/09/11 06:05:48;;;;;;;13.48;12.18;;;;;;;19.99;68.54;100693.03;4899658;28;127058;-60
2021/09/11 06:08:14;;;;;;;12.95;11.75;;;;;;;20.15;68.53;100696.88;4901842;28;98291;-60
2021/09/11 06:10:40;;;;;;;12.23;11.15;;;;;;;20.38;68.24;100700.19;4900374;28;126288;-59
2021/09/11 06:13:06;;;;;;;12.00;10.90;;;;;;;20.64;67.62;100702.06;4900355;28;122710;-60
2021/09/11 06:15:33;;;;;;;12.68;11.45;;;;;;;20.88;67.15;100685.81;4900821;28;126937;-59
2021/09/11 06:17:59;;;;;;;12.45;11.25;;;;;;;21.12;66.70;100690.66;4901345;28;98036;-61
2021/09/11 06:20:25;;;;;;;11.52;10.32;;;;;;;21.36;66.13;100691.97;4901516;28;98449;-59
2021/09/11 06:22:51;;;;;;;11.82;10.73;;;;;;;21.56;65.50;100682.94;4898742;28;112136;-59
2021/09/11 06:25:17;;;;;;;11.48;10.30;;;;;;;21.78;65.34;100692.75;4900832;28;112826;-61
2021/09/11 06:27:43;;;;;;;11.27;10.25;;;;;;;21.92;65.49;100704.19;4882983;28;97825;-61
2021/09/11 06:30:13;;;;;;;10.75;9.75;;;;;;;22.02;65.19;100694.75;4900013;28;127549;-61
2021/09/11 06:32:39;;;;;;;10.57;9.57;;;;;;;22.17;64.90;100701.59;4900974;28;98393;-61
2021/09/11 06:35:06;;;;;;;10.48;9.52;;;;;;;22.38;64.67;100701.50;4900560;28;98640;-59
2021/09/11 06:37:33;;;;;;;10.27;9.38;;;;;;;22.63;63.85;100699.56;4900920;28;98210;-60
2021/09/11 06:39:59;;;;;;;10.63;9.52;;;;;;;22.82;63.84;100705.28;4898646;28;99458;-61
2021/09/11 06:42:25;;;;;;;10.32;9.43;;;;;;;22.95;63.49;100708.84;4899655;28;98580;-60
2021/09/11 06:44:51;;;;;;;10.60;9.68;;;;;;;23.00;63.44;100709.44;4900602;28;120690;-61
2021/09/11 06:47:17;;;;;;;11.05;10.05;;;;;;;23.03;63.22;100707.94;4900587;28;112302;-60
2021/09/11 06:49:43;;;;;;;11.07;9.45;;;;;;;23.12;63.17;100707.81;4900558;28;126497;-61
2021/09/11 06:52:10;;;;;;;11.20;10.10;;;;;;;23.17;63.26;100704.81;4899437;28;125730;-60
2021/09/11 06:54:37;;;;;;;11.10;9.95;;;;;;;23.26;63.01;100706.31;4900706;28;98543;-61
2021/09/11 06:57:03;;;;;;;11.60;10.50;;;;;;;23.35;62.64;100700.66;4899931;28;112742;-61
2021/09/11 06:59:29;;;;;;;11.55;10.52;;;;;;;23.39;62.41;100703.53;4901355;28;98796;-61
2021/09/11 07:01:56;;;;;;;10.45;9.43;;;;;;;23.49;62.30;100701.06;4898412;28;129045;-61
2021/09/11 07:04:22;;;;;;;11.10;10.00;;;;;;;23.63;61.93;100699.88;4901016;28;98151;-60
2021/09/11 07:06:48;;;;;;;10.77;9.65;;;;;;;23.81;61.75;100700.41;4900263;28;97852;-60
2021/09/11 07:09:15;;;;;;;10.75;9.52;;;;;;;23.96;60.96;100699.66;4899777;28;98393;-59
2021/09/11 07:11:41;;;;;;;10.27;9.20;;;;;;;24.19;60.34;100697.09;4899591;28;128858;-60
2021/09/11 07:14:07;;;;;;;10.40;8.63;;;;;;;24.45;59.24;100708.44;4899635;28;116466;-59
2021/09/11 07:16:34;;;;;;;8.25;7.55;;;;;;;24.64;58.86;100704.97;4900402;28;97938;-60
2021/09/11 07:19:00;;;;;;;8.57;7.78;;;;;;;24.72;58.88;100715.00;4900401;28;106540;-59
2021/09/11 07:21:26;;;;;;;7.68;6.85;;;;;;;24.90;58.32;100717.38;4899498;28;115553;-61
2021/09/11 07:23:52;;;;;;;7.15;6.50;;;;;;;25.14;57.51;100714.41;4900069;28;127391;-60
2021/09/11 07:26:19;;;;;;;7.43;6.72;;;;;;;25.30;56.84;100719.09;4901285;28;98165;-61
2021/09/11 07:28:48;;;;;;;7.00;6.30;;;;;;;25.37;56.71;100720.03;4900420;28;99689;-61
2021/09/11 07:31:15;;;;;;;6.40;5.80;;;;;;;25.41;56.93;100718.16;4899827;28;115602;-61
2021/09/11 07:33:41;;;;;;;6.50;5.93;;;;;;;25.44;56.72;100733.19;4900038;28;101950;-61
2021/09/11 07:36:07;;;;;;;6.63;5.25;;;;;;;25.45;56.01;100732.03;4893501;28;97990;-61
2021/09/11 07:38:35;;;;;;;5.32;4.82;;;;;;;25.36;56.46;100736.97;4899181;28;98050;-61
2021/09/11 07:41:01;;;;;;;5.63;5.13;;;;;;;25.27;56.49;100736.34;4900159;28;98565;-61
2021/09/11 07:43:27;;;;;;;5.53;5.03;;;;;;;25.17;56.33;100735.78;4899850;28;114491;-61
2021/09/11 07:45:53;;;;;;;7.55;4.78;;;;;;;25.06;56.49;100737.44;4899872;28;97899;-60
2021/09/11 07:48:20;;;;;;;5.15;4.70;;;;;;;24.97;56.73;100753.41;4898817;28;127924;-60
2021/09/11 07:50:46;;;;;;;22.58;5.22;;;;;;;24.93;56.98;100758.03;4899425;28;111922;-62
2021/09/11 07:53:12;;;;;;;17.00;5.00;;;;;;;25.01;56.99;100753.47;4899015;28;127039;-60
2021/09/11 07:55:38;;;;;;;8.63;4.55;;;;;;;25.11;56.38;100762.03;4900592;28;97739;-61
2021/09/11 07:58:04;;;;;;;5.60;4.35;;;;;;;25.24;56.10;100771.00;4899773;28;98712;-61
2021/09/11 08:00:30;;;;;;;4.60;4.20;;;;;;;25.21;55.96;100772.50;4898665;28;129800;-61
2021/09/11 08:02:57;;;;;;;3.85;3.55;;;;;;;25.19;55.63;100763.81;4899503;28;98014;-59
2021/09/11 08:05:24;;;;;;;5.10;3.78;;;;;;;25.70;54.78;100771.19;4900488;28;97843;-61
2021/09/11 08:07:50;;;;;;;4.63;3.60;;;;;;;26.08;53.54;100778.69;4899430;28;98485;-60
2021/09/11 08:10:17;;;;;;;4.10;3.70;;;;;;;26.16;53.42;100774.91;4899350;28;128622;-61
2021/09/11 08:12:43;;;;;;;3.88;3.58;;;;;;;26.57;52.69;100771.75;4900370;28;98914;-59
2021/09/11 08:15:10;;;;;;;3.60;3.30;;;;;;;26.78;52.10;100774.06;4897855;28;111235;-61
2021/09/11 08:17:36;;;;;;;3.50;3.20;;;;;;;26.57;52.05;100777.25;4896883;28;113100;-61
2021/09/11 08:20:04;;;;;;;3.35;3.05;;;;;;;26.38;52.71;100776.13;4897996;28;99052;-60
2021/09/11 08:22:30;;;;;;;3.40;3.10;;;;;;;26.28;52.66;100781.44;4898861;28;118777;-61
2021/09/11 08:24:56;;;;;;;3.40;3.10;;;;;;;26.16;52.60;100779.63;4899732;28;97848;-61
2021/09/11 08:27:24;;;;;;;3.58;3.28;;;;;;;26.03;53.06;100773.47;4898454;28;128078;-61
2021/09/11 08:29:50;;;;;;;3.47;3.15;;;;;;;26.01;53.14;100770.25;4899668;28;98922;-60
2021/09/11 08:32:16;;;;;;;3.65;3.35;;;;;;;26.03;52.89;100786.50;4892527;28;126523;-60
2021/09/11 08:34:42;;;;;;;3.70;3.40;;;;;;;25.95;53.18;100785.53;4899230;28;104458;-60
2021/09/11 08:37:08;;;;;;;4.05;3.65;;;;;;;25.88;53.55;100774.34;4898245;28;126030;-62
2021/09/11 08:39:34;;;;;;;3.90;3.50;;;;;;;25.69;54.08;100786.94;4899426;28;128576;-61
2021/09/11 08:42:01;;;;;;;4.10;3.70;;;;;;;25.43;54.53;100786.78;4898255;28;126096;-60
2021/09/11 08:44:27;;;;;;;4.00;3.70;;;;;;;25.18;55.30;100786.19;4900212;28;97813;-61
2021/09/11 08:46:56;;;;;;;4.50;4.10;;;;;;;24.95;55.79;100783.25;4898864;28;98891;-60
2021/09/11 08:49:22;;;;;;;7.97;4.43;;;;;;;24.75;56.24;100782.38;4898760;28;110920;-61
2021/09/11 08:51:48;;;;;;;6.53;4.47;;;;;;;24.56;56.91;100782.28;4898264;28;98570;-61
2021/09/11 08:54:18;;;;;;;5.68;4.80;;;;;;;24.38;57.22;100779.88;4900568;28;97877;-61
2021/09/11 08:56:46;;;;;;;5.35;4.60;;;;;;;24.21;57.65;100785.69;4897865;28;99972;-61
2021/09/11 08:59:16;;;;;;;5.93;4.80;;;;;;;23.98;58.51;100791.75;4898594;28;110897;-59
2021/09/11 09:01:42;;;;;;;5.13;4.63;;;;;;;23.84;59.25;100790.53;4899596;28;98447;-62
2021/09/11 09:04:08;;;;;;;5.55;5.05;;;;;;;23.68;59.46;100794.00;4899324;28;98251;-59
2021/09/11 09:06:36;;;;;;;5.30;4.90;;;;;;;23.55;60.18;100788.88;4900055;28;98832;-60
2021/09/11 09:09:10;;;;;;;5.30;4.90;;;;;;;23.48;59.97;100792.19;4902078;28;128114;-59
2021/09/11 09:11:46;;;;;;;5.53;5.10;;;;;;;23.49;60.48;100788.28;4902231;28;97864;-60
2021/09/11 09:14:18;;;;;;;5.20;4.80;;;;;;;23.46;60.26;100781.56;4902236;28;102517;-59
2021/09/11 09:16:47;;;;;;;6.38;5.70;;;;;;;23.50;60.68;100785.22;4901832;28;98475;-61
2021/09/11 09:19:24;;;;;;;6.10;5.50;;;;;;;23.55;60.61;100794.38;4901967;28;98359;-59
2021/09/11 09:21:53;;;;;;;6.38;5.70;;;;;;;23.57;60.86;100787.34;4901335;28;119973;-60
2021/09/11 09:24:36;;;;;;;5.78;5.28;;;;;;;23.62;60.53;100786.31;4903111;28;97903;-61
2021/09/11 09:27:08;;;;;;;7.03;6.43;;;;;;;23.65;60.80;100783.66;4899748;28;99136;-61
2021/09/11 09:29:36;;;;;;;7.60;6.32;;;;;;;23.67;61.03;100784.16;4902805;28;98733;-61
2021/09/11 09:32:02;;;;;;;7.22;6.53;;;;;;;23.72;60.81;100789.41;4902047;28;97791;-60
2021/09/11 09:34:39;;;;;;;6.95;6.25;;;;;;;23.88;60.45;100783.16;4901009;28;98314;-59
2021/09/11 09:37:19;;;;;;;7.38;6.75;;;;;;;24.18;59.33;100789.13;4900860;28;99103;-60
2021/09/11 09:39:49;;;;;;;8.10;7.40;;;;;;;24.60;58.45;100785.94;4901927;28;98212;-59
2021/09/11 09:42:17;;;;;;;7.63;6.93;;;;;;;25.02;57.36;100785.41;4901546;28;97823;-60
2021/09/11 09:44:51;;;;;;;7.28;6.65;;;;;;;25.73;55.60;100786.22;4902564;28;98516;-60
2021/09/11 09:47:18;;;;;;;7.28;6.68;;;;;;;26.48;54.74;100785.78;4901461;28;97909;-61
2021/09/11 09:50:03;;;;;;;7.30;6.70;;;;;;;27.46;52.86;100773.13;4901865;28;99078;-60
2021/09/11 09:52:30;;;;;;;6.32;5.72;;;;;;;27.81;52.36;100783.09;4901744;28;98161;-60
2021/09/11 09:54:56;;;;;;;7.03;6.32;;;;;;;27.81;52.08;100789.41;4901537;28;97991;-61
2021/09/11 09:57:23;;;;;;;7.22;6.55;;;;;;;27.62;52.65;100786.78;4898085;28;127487;-60
2021/09/11 09:59:50;;;;;;;7.95;7.35;;;;;;;27.76;51.87;100780.66;4898077;28;128637;-60
2021/09/11 10:02:17;;;;;;;7.47;6.78;;;;;;;27.73;51.58;100782.19;4882114;28;127652;-60
2021/09/11 10:04:43;;;;;;;7.90;7.30;;;;;;;27.64;51.76;100770.59;4901432;28;112738;-61
2021/09/11 10:07:09;;;;;;;7.85;7.13;;;;;;;27.56;51.63;100769.72;4899998;28;127956;-61
2021/09/11 10:09:35;;;;;;;7.88;7.18;;;;;;;27.61;51.57;100772.13;4900186;28;98260;-61
2021/09/11 10:12:01;;;;;;;7.78;7.00;;;;;;;27.60;51.52;100765.00;4900537;28;126798;-61
2021/09/11 10:14:34;;;;;;;7.80;7.10;;;;;;;27.56;52.07;100766.94;4899965;28;112852;-60
2021/09/11 10:17:04;;;;;;;7.55;6.85;;;;;;;27.64;51.58;100762.28;4899942;28;98385;-61
2021/09/11 10:19:34;;;;;;;7.93;7.10;;;;;;;28.00;50.29;100766.31;4901175;28;99056;-61
2021/09/11 10:22:21;;;;;;;7.75;7.05;;;;;;;28.28;49.91;100770.56;4900140;28;98481;-60
2021/09/11 10:25:04;;;;;;;7.90;7.20;;;;;;;27.68;50.83;100762.34;4902391;28;97715;-61
2021/09/11 10:27:38;;;;;;;7.25;6.60;;;;;;;27.20;51.64;100760.13;4899463;28;98641;-62
2021/09/11 10:30:14;;;;;;;6.78;6.10;;;;;;;26.83;51.98;100765.44;4901038;28;99216;-60
2021/09/11 10:32:44;;;;;;;6.88;6.28;;;;;;;26.42;52.82;100767.88;4901054;28;100444;-60
2021/09/11 10:35:12;;;;;;;6.80;6.18;;;;;;;26.13;52.54;100758.25;4899422;28;98082;-59
2021/09/11 10:37:52;;;;;;;6.25;5.68;;;;;;;25.95;53.26;100763.47;4900683;28;99400;-60
2021/09/11 10:40:48;;;;;;;6.75;6.18;;;;;;;25.87;53.21;100758.97;4900834;28;98437;-59
2021/09/11 10:43:28;;;;;;;6.88;6.15;;;;;;;25.68;53.87;100755.00;4872494;28;118244;-61
2021/09/11 10:45:56;;;;;;;6.07;5.57;;;;;;;25.60;53.83;100761.53;4899757;28;97973;-60
2021/09/11 10:48:43;;;;;;;6.18;5.68;;;;;;;25.46;53.96;100752.94;4900969;28;98345;-61
2021/09/11 10:51:27;;;;;;;6.88;5.75;;;;;;;25.32;54.13;100752.66;4900476;28;99318;-61
2021/09/11 10:54:24;;;;;;;6.13;5.53;;;;;;;25.30;53.99;100747.47;4901129;28;97991;-60
2021/09/11 10:56:52;;;;;;;6.07;5.57;;;;;;;25.28;53.91;100755.31;4901145;28;97890;-61
2021/09/11 10:59:18;;;;;;;6.28;5.68;;;;;;;25.27;54.09;100744.63;4900839;28;99103;-60
2021/09/11 11:02:27;;;;;;;5.88;5.47;;;;;;;25.27;54.68;100739.94;4900456;28;99386;-60
2021/09/11 11:05:02;;;;;;;6.30;5.75;;;;;;;25.27;54.71;100739.94;4900825;28;98701;-61
2021/09/11 11:07:31;;;;;;;6.22;5.63;;;;;;;25.28;54.75;100735.22;4900304;28;98088;-60
2021/09/11 11:10:05;;;;;;;6.05;5.55;;;;;;;25.30;55.26;100744.72;4893440;28;99060;-61
2021/09/11 11:12:50;;;;;;;6.60;6.00;;;;;;;25.33;54.57;100741.25;4900017;28;102419;-61
2021/09/11 11:15:22;;;;;;;6.50;5.90;;;;;;;25.26;54.30;100735.56;4900854;28;98101;-61